createdAt,value
2022-12-02T10:31:24.821Z,123.00
2022-12-02T10:33:57.433Z,141.32
2022-12-02T10:36:34.124Z,145.05
2022-12-02T10:39:30.218Z,167.95
2022-12-02T10:42:03.725Z,175.52
2022-12-02T10:44:35.137Z,180.05
2022-12-02T10:47:26.494Z,164.10
2022-12-02T10:49:58.562Z,178.20
2022-12-02T10:52:33.928Z,193.45
2022-12-02T10:55:02.345Z,194.50
2022-12-02T10:57:30.871Z,176.15
2022-12-02T11:00:01.064Z,177.00
2022-12-02T11:02:30.720Z,191.57
2022-12-02T11:05:01.431Z,191.70
2022-12-02T11:07:28.221Z,194.50
2022-12-02T11:09:56.111Z,192.98
2022-12-02T11:12:35.872Z,187.50
2022-12-02T11:15:05.790Z,195.60
2022-12-02T11:17:48.573Z,199.20
2022-12-02T11:20:34.983Z,181.23
2022-12-02T11:23:01.613Z,203.50
2022-12-02T11:25:43.414Z,187.82
2022-12-02T11:28:28.490Z,188.90
2022-12-02T11:31:10.584Z,192.50
2022-12-02T11:33:43.523Z,195.60
2022-12-02T11:36:14.704Z,195.27
2022-12-02T11:38:53.728Z,187.98
2022-12-02T11:41:21.500Z,195.68
2022-12-02T11:43:48.074Z,195.82
2022-12-02T11:46:18.173Z,205.60
2022-12-02T11:48:53.569Z,209.43
2022-12-02T11:51:28.662Z,211.27
2022-12-02T11:53:55.716Z,201.60
2022-12-02T11:56:22.941Z,187.63
2022-12-02T11:58:49.639Z,207.48
2022-12-02T12:01:19.309Z,202.68
2022-12-02T12:03:48.277Z,209.07
2022-12-02T12:06:26.191Z,183.38
2022-12-02T12:08:56.696Z,204.02
2022-12-02T12:11:37.390Z,190.63
2022-12-02T12:14:20.921Z,200.80
2022-12-02T12:16:49.467Z,201.30
2022-12-02T12:19:16.227Z,217.20
2022-12-02T12:21:47.215Z,196.95
2022-12-02T12:24:23.301Z,214.18
2022-12-02T12:26:54.352Z,200.47
2022-12-02T12:29:23.045Z,192.20
2022-12-02T12:31:49.782Z,218.55
2022-12-02T12:34:16.686Z,192.20
2022-12-02T12:36:45.357Z,200.70
2022-12-02T12:39:12.789Z,193.10
2022-12-02T12:44:30.117Z,191.52
2022-12-02T12:46:59.579Z,167.38
2022-12-02T12:49:26.290Z,179.95
2022-12-02T12:51:53.005Z,189.38
2022-12-02T12:54:19.689Z,203.65
2022-12-02T12:56:46.394Z,199.02
2022-12-02T12:59:13.095Z,218.65
2022-12-02T13:01:39.852Z,202.25
2022-12-02T13:04:06.585Z,204.60
2022-12-02T13:06:37.466Z,214.48
2022-12-02T13:09:08.261Z,193.90
2022-12-02T13:11:34.971Z,193.20
2022-12-02T13:14:01.647Z,189.90
2022-12-02T13:16:28.507Z,188.55
2022-12-02T13:18:55.234Z,214.43
2022-12-02T13:21:21.994Z,200.63
2022-12-02T13:23:48.702Z,195.40
2022-12-02T13:26:15.709Z,210.60
2022-12-02T13:28:42.707Z,214.70
2022-12-02T13:31:09.521Z,231.63
2022-12-02T13:33:36.227Z,225.45
2022-12-02T13:36:02.973Z,203.77
2022-12-02T13:38:29.629Z,209.60
2022-12-02T13:40:56.298Z,217.57
2022-12-02T13:43:22.973Z,204.02
2022-12-02T13:45:49.656Z,206.27
2022-12-02T13:48:16.528Z,226.32
2022-12-02T13:50:43.233Z,202.52
2022-12-02T13:53:10.130Z,205.98
2022-12-02T13:55:36.771Z,221.45
2022-12-02T13:58:06.471Z,230.35
2022-12-02T14:00:33.301Z,227.27
2022-12-02T14:03:00.008Z,211.82
2022-12-02T14:05:26.701Z,228.27
2022-12-02T14:07:53.466Z,222.20
2022-12-02T14:10:20.217Z,218.07
2022-12-02T14:12:46.877Z,198.63
2022-12-02T14:15:14.138Z,233.57
2022-12-02T14:17:40.892Z,207.27
2022-12-02T14:20:07.977Z,209.00
2022-12-02T14:22:34.753Z,203.50
2022-12-02T14:25:03.110Z,239.15
2022-12-02T14:27:30.008Z,237.23
2022-12-02T14:29:56.701Z,214.15
2022-12-02T14:32:23.452Z,236.77
2022-12-02T14:34:50.472Z,231.10
2022-12-02T14:37:17.408Z,236.15
2022-12-02T14:39:44.335Z,218.50
2022-12-02T14:42:11.252Z,245.63
2022-12-02T14:44:38.153Z,228.23
2022-12-02T14:47:12.679Z,239.20
2022-12-02T14:49:42.487Z,237.88
2022-12-02T14:52:11.833Z,228.52
2022-12-02T14:54:46.248Z,247.43
2022-12-02T14:57:15.088Z,224.93
2022-12-02T14:59:42.570Z,232.02
2022-12-02T15:02:14.852Z,244.93
2022-12-02T15:04:42.081Z,207.40
2022-12-02T15:08:27.943Z,205.02
2022-12-02T15:11:12.503Z,196.00
2022-12-02T15:13:42.429Z,158.63
